Time;durP1;ratioP1;P1;durP2;ratioP2;P2;SDS_P1;SDS_P2;PMS_P1;PMS_P2;Temp;Humidity;BMP_temperature;BMP_pressure;BME280_temperature;BME280_humidity;BME280_pressure;Samples;Min_cycle;Max_cycle;Signal;HPM_P1;HPM_P2
2022/08/28 00:00:51;;;;;;;7.45;2.90;;;;;;;19.95;48.85;99919.94;10344470;28;20046;-60
2022/08/28 00:05:53;;;;;;;6.57;2.90;;;;;;;20.01;48.73;99917.50;10332259;28;20926;-60
2022/08/28 00:10:55;;;;;;;5.78;2.92;;;;;;;20.13;48.50;99910.16;10341034;28;20071;-60
2022/08/28 00:15:59;;;;;;;6.75;3.10;;;;;;;20.14;48.21;99927.75;10341115;28;20042;-60
2022/08/28 00:21:02;;;;;;;6.68;3.10;;;;;;;20.14;48.34;99919.78;10342247;28;20096;-60
2022/08/28 00:26:03;;;;;;;7.20;3.13;;;;;;;20.11;48.18;99923.56;10343001;28;20048;-60
2022/08/28 00:31:06;;;;;;;5.57;2.67;;;;;;;20.18;48.42;99929.09;10338827;28;20136;-60
2022/08/28 00:36:08;;;;;;;5.93;3.28;;;;;;;20.12;48.32;99930.56;10342248;28;20054;-60
2022/08/28 00:41:11;;;;;;;5.60;3.08;;;;;;;20.09;48.50;99932.69;10341750;28;20053;-60
2022/08/28 00:46:21;;;;;;;7.63;3.03;;;;;;;20.19;48.25;99936.91;10340234;28;20053;-60
2022/08/28 00:56:45;;;;;;;5.55;2.80;;;;;;;20.18;48.30;99939.72;10342576;28;20066;-60
2022/08/28 01:01:48;;;;;;;7.88;2.72;;;;;;;20.27;48.37;99941.47;10340086;28;20506;-60
2022/08/28 01:06:53;;;;;;;5.32;2.90;;;;;;;20.29;48.61;99936.84;10341351;28;20050;-60
2022/08/28 01:12:01;;;;;;;6.78;3.15;;;;;;;20.15;49.11;99935.53;10341034;28;20050;-61
2022/08/28 01:17:07;;;;;;;7.03;2.88;;;;;;;20.18;49.10;99939.72;10340901;28;20414;-60
2022/08/28 01:22:08;;;;;;;9.02;3.10;;;;;;;20.20;49.16;99945.72;10337730;28;20054;-61
2022/08/28 01:27:10;;;;;;;6.25;3.20;;;;;;;20.18;49.05;99940.56;10344310;28;20553;-60
2022/08/28 01:32:12;;;;;;;5.55;2.95;;;;;;;20.15;49.38;99940.03;10348536;28;20060;-60
2022/08/28 01:37:14;;;;;;;6.45;2.90;;;;;;;20.12;49.13;99941.19;10348804;28;20064;-60
2022/08/28 01:42:16;;;;;;;5.25;2.70;;;;;;;20.12;49.16;99943.84;10348244;28;20073;-60
2022/08/28 01:47:18;;;;;;;7.00;3.00;;;;;;;20.08;49.52;99949.59;10348577;28;20470;-60
2022/08/28 01:52:19;;;;;;;7.72;3.20;;;;;;;20.09;49.56;99952.09;10347266;28;20054;-60
2022/08/28 01:57:27;;;;;;;5.88;3.20;;;;;;;20.01;49.74;99946.69;10341834;28;20464;-60
2022/08/28 02:02:30;;;;;;;5.40;3.03;;;;;;;19.88;50.11;99950.72;10350489;28;20056;-60
2022/08/28 02:07:32;;;;;;;6.22;3.10;;;;;;;19.89;49.92;99952.38;10352808;28;20046;-60
2022/08/28 02:12:34;;;;;;;6.80;3.28;;;;;;;19.92;49.40;99954.75;10353593;28;20054;-60
2022/08/28 02:17:36;;;;;;;6.47;3.05;;;;;;;19.94;49.76;99956.28;10356231;28;20060;-60
2022/08/28 02:22:38;;;;;;;7.00;2.90;;;;;;;19.96;50.10;99964.06;10352032;28;20136;-60
2022/08/28 02:27:40;;;;;;;6.22;3.10;;;;;;;19.94;49.98;99958.94;10353334;28;20056;-60
2022/08/28 02:32:42;;;;;;;6.47;2.97;;;;;;;19.90;50.15;99959.38;10352321;28;20136;-60
2022/08/28 02:37:45;;;;;;;6.55;2.95;;;;;;;19.69;50.30;99945.50;10353403;28;20116;-60
2022/08/28 02:42:49;;;;;;;6.15;3.10;;;;;;;19.53;50.72;99958.56;10354657;28;20505;-60
2022/08/28 02:47:52;;;;;;;6.05;3.15;;;;;;;19.61;50.62;99951.56;10353138;28;20052;-60
2022/08/28 02:52:54;;;;;;;9.48;3.53;;;;;;;19.58;50.57;99953.69;10353330;28;20468;-60
2022/08/28 02:57:56;;;;;;;5.72;2.97;;;;;;;19.69;50.74;99953.47;10353963;28;20096;-59
2022/08/28 03:02:57;;;;;;;5.93;3.20;;;;;;;19.70;50.75;99947.19;10346235;28;20053;-60
2022/08/28 03:07:59;;;;;;;5.45;3.30;;;;;;;19.75;50.57;99955.50;10347335;28;20081;-60
2022/08/28 03:13:01;;;;;;;5.78;3.00;;;;;;;19.74;50.94;99953.84;10345676;28;20046;-60
2022/08/28 03:18:03;;;;;;;5.50;2.92;;;;;;;19.72;51.09;99955.81;10347585;28;20099;-60
2022/08/28 03:23:27;;;;;;;5.68;3.20;;;;;;;19.62;51.39;99957.69;10343274;28;21346;-60
2022/08/28 03:28:35;;;;;;;7.32;3.33;;;;;;;19.53;51.39;99958.56;10346872;28;20071;-60
2022/08/28 03:33:37;;;;;;;5.38;3.30;;;;;;;19.46;51.58;99951.22;10343554;28;20050;-60
2022/08/28 03:38:42;;;;;;;8.07;3.03;;;;;;;19.30;51.74;99958.13;10346911;28;21614;-60
2022/08/28 03:43:44;;;;;;;6.95;3.38;;;;;;;19.40;51.84;99970.38;10346611;28;20042;-60
2022/08/28 03:48:46;;;;;;;9.88;3.25;;;;;;;19.48;51.66;99962.50;10346739;28;20053;-60
2022/08/28 03:53:51;;;;;;;7.50;3.40;;;;;;;19.29;51.90;99962.63;10345737;28;20058;-59
2022/08/28 03:58:56;;;;;;;7.32;3.60;;;;;;;19.30;51.45;99960.78;10346205;28;20064;-60
2022/08/28 04:03:58;;;;;;;5.88;3.20;;;;;;;19.35;51.64;99966.50;10344877;28;20140;-60
2022/08/28 04:09:01;;;;;;;6.97;3.33;;;;;;;19.42;51.20;99965.75;10346812;28;21051;-60
2022/08/28 04:14:02;;;;;;;7.32;3.15;;;;;;;19.48;51.26;99965.16;10344649;28;20418;-60
2022/08/28 04:19:04;;;;;;;5.15;3.15;;;;;;;19.49;51.22;99966.00;10345631;28;20530;-60
2022/08/28 04:24:06;;;;;;;6.55;3.35;;;;;;;19.41;51.51;99971.22;10344860;28;20061;-60
2022/08/28 04:29:11;;;;;;;7.57;3.53;;;;;;;19.29;52.08;99967.91;10345911;28;20060;-60
2022/08/28 04:34:12;;;;;;;6.38;3.15;;;;;;;19.15;52.48;99973.69;10343865;28;20418;-60
2022/08/28 04:39:14;;;;;;;8.02;3.60;;;;;;;18.98;52.15;99979.72;10345313;28;20060;-60
2022/08/28 04:44:16;;;;;;;9.65;3.40;;;;;;;18.97;52.28;99983.31;10343772;28;20490;-60
2022/08/28 04:49:18;;;;;;;10.30;3.45;;;;;;;19.02;52.00;99986.44;10344569;28;20059;-60
2022/08/28 04:54:19;;;;;;;6.30;3.28;;;;;;;19.09;51.77;99990.19;10341590;28;20421;-59
2022/08/28 04:59:22;;;;;;;6.07;2.88;;;;;;;19.09;52.13;100003.44;10343821;28;20049;-60
2022/08/28 05:04:25;;;;;;;7.88;3.53;;;;;;;19.10;52.27;100004.25;10343850;28;20058;-60
2022/08/28 05:09:27;;;;;;;9.25;3.63;;;;;;;18.86;53.15;100004.72;10343601;28;20050;-60
2022/08/28 05:14:29;;;;;;;6.22;3.40;;;;;;;18.63;53.77;100014.78;10342559;28;20561;-60
2022/08/28 05:19:31;;;;;;;8.77;4.00;;;;;;;18.50;54.27;100022.16;10343073;28;20056;-60
2022/08/28 05:24:33;;;;;;;7.03;3.30;;;;;;;18.66;53.85;100021.63;10342359;28;20050;-60
2022/08/28 05:29:37;;;;;;;5.93;3.33;;;;;;;18.81;53.57;100022.84;10343531;28;20540;-60
2022/08/28 05:34:39;;;;;;;8.75;3.42;;;;;;;19.06;52.87;100026.72;10342199;28;20076;-60
2022/08/28 05:39:40;;;;;;;5.97;3.28;;;;;;;19.45;52.28;100031.78;10341836;28;20056;-61
2022/08/28 05:44:42;;;;;;;10.38;3.58;;;;;;;19.90;50.92;100039.00;10342768;28;20046;-60
2022/08/28 05:49:43;;;;;;;8.57;3.03;;;;;;;20.17;50.37;100039.78;10342829;28;20062;-60
2022/08/28 05:54:45;;;;;;;6.82;3.20;;;;;;;20.33;50.12;100044.47;10341627;28;20062;-60
2022/08/28 05:59:47;;;;;;;8.57;3.50;;;;;;;20.37;50.03;100056.44;10342524;28;21134;-60
2022/08/28 06:04:49;;;;;;;7.47;3.50;;;;;;;20.28;50.09;100049.38;10342086;28;20514;-60
2022/08/28 06:09:50;;;;;;;11.45;3.15;;;;;;;20.42;49.52;100051.50;10342116;28;20045;-60
2022/08/28 06:14:52;;;;;;;7.72;3.65;;;;;;;20.50;49.34;100051.56;10345272;28;20050;-60
2022/08/28 06:19:55;;;;;;;9.02;2.88;;;;;;;20.48;48.96;100050.91;10348625;28;20550;-60
2022/08/28 06:24:57;;;;;;;8.55;3.30;;;;;;;20.52;48.49;100043.47;10348488;28;20046;-60
2022/08/28 06:29:59;;;;;;;8.88;2.97;;;;;;;20.66;47.30;100045.63;10351252;28;20100;-60
2022/08/28 06:35:00;;;;;;;8.20;2.58;;;;;;;20.34;47.71;100047.97;10347243;28;20050;-60
2022/08/28 06:40:03;;;;;;;9.55;2.60;;;;;;;20.18;47.58;100048.59;10349470;28;20050;-60
2022/08/28 06:45:05;;;;;;;13.43;2.75;;;;;;;20.37;47.32;100052.94;10347452;28;20108;-60
2022/08/28 06:50:07;;;;;;;8.73;2.60;;;;;;;20.46;47.24;100060.84;10349475;28;20065;-60
2022/08/28 06:55:09;;;;;;;11.65;2.75;;;;;;;20.39;46.93;100058.94;10347091;28;20425;-60
2022/08/28 07:00:12;;;;;;;7.57;2.50;;;;;;;20.36;47.29;100056.59;10348609;28;20050;-60
2022/08/28 07:05:14;;;;;;;5.07;2.42;;;;;;;20.29;47.49;100057.19;10347050;28;20560;-60
2022/08/28 07:10:16;;;;;;;9.57;2.65;;;;;;;20.40;47.00;100064.09;10348051;28;20062;-60
2022/08/28 07:15:18;;;;;;;10.82;2.63;;;;;;;20.42;46.68;100070.09;10341648;28;20052;-60
2022/08/28 07:20:20;;;;;;;11.65;2.85;;;;;;;20.64;46.51;100069.69;10346522;28;20060;-60
2022/08/28 07:25:23;;;;;;;9.57;2.67;;;;;;;20.59;46.24;100074.63;10346688;28;20494;-60
2022/08/28 07:30:25;;;;;;;7.78;2.90;;;;;;;20.79;45.88;100070.81;10344788;28;20248;-60
2022/08/28 07:35:27;;;;;;;10.52;3.17;;;;;;;21.10;45.22;100071.22;10344609;28;20053;-60
2022/08/28 07:40:30;;;;;;;6.70;2.53;;;;;;;21.48;44.46;100070.84;10342017;28;20089;-61
2022/08/28 07:45:34;;;;;;;11.32;2.70;;;;;;;21.79;43.27;100068.50;10343860;28;20107;-60
2022/08/28 07:50:36;;;;;;;8.35;2.50;;;;;;;22.17;42.67;100067.19;10343173;28;20418;-60
2022/08/28 07:55:38;;;;;;;11.80;2.95;;;;;;;22.90;41.02;100070.81;10333787;28;20054;-61
2022/08/28 08:00:40;;;;;;;10.93;2.92;;;;;;;23.60;39.64;100067.38;10341152;28;20048;-61
2022/08/28 08:05:54;;;;;;;8.63;2.53;;;;;;;23.82;38.26;100063.97;10333702;28;20176;-61
2022/08/28 08:11:04;;;;;;;8.50;2.45;;;;;;;24.31;37.32;100063.78;10341889;28;21175;-60
2022/08/28 08:16:10;;;;;;;7.20;2.28;;;;;;;24.72;36.79;100057.16;10335575;28;20607;-61
2022/08/28 08:21:14;;;;;;;6.93;2.45;;;;;;;25.09;36.18;100068.72;10336152;28;20050;-61
2022/08/28 08:26:19;;;;;;;9.32;2.40;;;;;;;25.73;34.71;100079.78;10345016;28;20144;-61
2022/08/28 08:31:28;;;;;;;7.10;2.47;;;;;;;25.34;34.80;100077.38;10337333;28;20487;-61
2022/08/28 08:36:31;;;;;;;;;;;;;;;24.20;35.97;100073.84;10343851;28;20061;-61
2022/08/28 08:41:36;;;;;;;9.02;2.80;;;;;;;24.46;36.13;100068.19;10343501;28;20005;-60
2022/08/28 08:47:02;;;;;;;7.05;2.13;;;;;;;24.11;36.26;100068.72;10344739;28;20042;-60
2022/08/28 08:52:04;;;;;;;9.95;2.40;;;;;;;24.72;35.47;100066.00;10342339;28;20054;-60
2022/08/28 08:57:09;;;;;;;12.98;2.80;;;;;;;24.79;35.42;100066.97;10340920;28;20057;-60
2022/08/28 09:02:20;;;;;;;10.10;2.75;;;;;;;24.81;35.73;100069.47;10342862;28;20054;-60
2022/08/28 09:07:56;;;;;;;7.75;2.05;;;;;;;24.73;34.32;100074.88;10339971;28;20080;-60
2022/08/28 09:13:21;;;;;;;11.07;2.20;;;;;;;24.76;33.87;100071.81;10337506;28;20050;-60
2022/08/28 09:18:27;;;;;;;6.40;2.20;;;;;;;24.94;33.94;100067.84;10337478;28;20065;-60
2022/08/28 09:23:28;;;;;;;9.63;2.13;;;;;;;25.01;34.23;100065.28;10339168;28;20478;-61
2022/08/28 09:28:39;;;;;;;8.27;2.35;;;;;;;26.15;31.67;100065.72;10343664;28;20065;-60
2022/08/28 09:33:46;;;;;;;6.68;2.30;;;;;;;26.11;31.91;100070.63;10339152;28;20417;-60
2022/08/28 09:39:12;;;;;;;6.32;1.95;;;;;;;25.46;31.30;100072.38;10339119;28;21109;-59
2022/08/28 09:44:13;;;;;;;6.57;2.22;;;;;;;25.79;31.89;100074.50;10340931;28;20049;-60
2022/08/28 09:49:22;;;;;;;7.68;2.10;;;;;;;26.47;30.58;100067.91;10345130;28;20077;-60
2022/08/28 09:54:39;;;;;;;5.82;1.90;;;;;;;26.73;30.08;100078.94;10347420;28;20066;-59
2022/08/28 09:59:41;;;;;;;7.13;2.20;;;;;;;26.23;30.25;100074.47;10349701;28;20441;-60
2022/08/28 10:05:06;;;;;;;8.45;2.25;;;;;;;26.67;29.08;100068.97;10347305;28;20413;-60
2022/08/28 10:10:29;;;;;;;6.80;1.92;;;;;;;26.26;29.81;100075.97;10346401;28;20050;-60
2022/08/28 10:15:39;;;;;;;5.57;2.00;;;;;;;25.45;31.20;100071.56;10350242;28;20439;-60
2022/08/28 10:20:50;;;;;;;7.47;2.10;;;;;;;25.89;30.77;100067.00;10348512;28;20549;-60
2022/08/28 10:26:11;;;;;;;6.03;2.08;;;;;;;25.98;29.60;100062.41;10348016;28;20402;-60
2022/08/28 10:31:25;;;;;;;8.20;2.00;;;;;;;25.91;30.33;100061.47;10347449;28;20386;-60
2022/08/28 10:36:34;;;;;;;5.10;1.93;;;;;;;26.00;30.14;100060.38;10349540;28;20605;-60
2022/08/28 10:41:44;;;;;;;8.75;2.17;;;;;;;26.16;29.27;100062.03;10341538;28;20045;-60
2022/08/28 10:46:54;;;;;;;6.88;2.13;;;;;;;25.77;29.69;100052.41;10348344;28;20050;-60
2022/08/28 10:52:02;;;;;;;8.73;2.13;;;;;;;25.68;30.19;100048.19;10346071;28;20058;-60
2022/08/28 10:57:29;;;;;;;7.20;1.90;;;;;;;25.26;30.86;100045.28;10346435;28;20081;-59
2022/08/28 11:02:31;;;;;;;8.15;2.30;;;;;;;25.04;31.12;100048.84;10348597;28;20125;-60
2022/08/28 11:07:36;;;;;;;6.70;2.10;;;;;;;24.90;31.21;100057.66;10347448;28;20060;-60
2022/08/28 11:12:42;;;;;;;4.75;1.92;;;;;;;24.90;31.65;100045.13;10347381;28;20050;-59
2022/08/28 11:17:43;;;;;;;7.88;2.20;;;;;;;25.20;30.75;100046.03;10343992;28;20070;-60
2022/08/28 11:23:10;;;;;;;5.25;2.20;;;;;;;25.41;30.63;100045.31;10347996;28;20309;-61
2022/08/28 11:28:24;;;;;;;8.70;3.10;;;;;;;25.86;28.97;100042.44;10345603;28;22412;-60
2022/08/28 11:33:51;;;;;;;6.43;2.40;;;;;;;25.92;28.91;100045.22;10346511;28;21073;-60
2022/08/28 11:38:52;;;;;;;5.28;2.10;;;;;;;26.09;29.71;100047.69;10342110;28;20135;-61
2022/08/28 11:44:12;;;;;;;7.15;2.60;;;;;;;25.71;28.44;100037.09;10347169;28;20136;-61
2022/08/28 11:49:26;;;;;;;7.65;2.88;;;;;;;25.50;28.04;100045.06;10345603;28;20046;-61
2022/08/28 11:55:15;;;;;;;8.13;2.80;;;;;;;25.35;28.12;100038.84;10345413;28;20396;-61
2022/08/28 12:00:28;;;;;;;7.70;2.78;;;;;;;25.50;28.26;100037.03;10319304;28;20110;-61
2022/08/28 12:05:29;;;;;;;9.50;3.10;;;;;;;25.96;27.86;100040.31;10344777;28;20049;-61
2022/08/28 12:10:31;;;;;;;8.63;2.95;;;;;;;26.22;27.52;100042.50;10344273;28;20448;-61
2022/08/28 12:15:32;;;;;;;7.60;3.33;;;;;;;26.02;27.16;100030.72;10345057;28;20528;-60
2022/08/28 12:20:50;;;;;;;7.45;3.40;;;;;;;26.07;26.80;100028.28;10343820;28;20524;-61
2022/08/28 12:26:04;;;;;;;5.93;3.22;;;;;;;26.33;26.84;100024.06;10344744;28;20801;-61
2022/08/28 12:31:06;;;;;;;6.97;3.40;;;;;;;26.47;26.54;100028.53;10344102;28;20068;-61
2022/08/28 12:36:14;;;;;;;6.35;3.30;;;;;;;26.60;25.77;100022.50;10345385;28;20074;-61
2022/08/28 12:41:17;;;;;;;8.32;3.65;;;;;;;26.62;26.79;100023.13;10344561;28;20053;-60
2022/08/28 12:46:36;;;;;;;6.50;3.25;;;;;;;26.59;27.52;100020.81;10342847;28;20050;-61
2022/08/28 12:51:38;;;;;;;7.00;3.80;;;;;;;26.94;27.54;100001.09;10343627;28;20041;-61
2022/08/28 12:56:39;;;;;;;7.80;4.13;;;;;;;26.74;27.29;100002.81;10342323;28;20572;-61
2022/08/28 13:01:43;;;;;;;9.05;3.90;;;;;;;26.81;25.22;100014.44;10341326;28;20057;-61
2022/08/28 13:06:45;;;;;;;12.35;3.67;;;;;;;26.90;25.49;100004.38;10339094;28;20096;-61
2022/08/28 13:11:49;;;;;;;7.13;3.78;;;;;;;26.99;24.74;99995.16;10343545;28;20498;-61
2022/08/28 13:16:50;;;;;;;9.48;3.97;;;;;;;26.88;25.71;100001.88;10344392;28;20050;-61
2022/08/28 13:22:00;;;;;;;8.85;3.75;;;;;;;27.00;24.91;99989.59;10344517;28;20064;-61
2022/08/28 13:27:05;;;;;;;6.80;3.65;;;;;;;27.08;26.16;99992.13;10350525;28;20056;-61
2022/08/28 13:32:14;;;;;;;7.05;3.67;;;;;;;27.20;25.03;99987.88;10351993;28;20062;-61
2022/08/28 13:37:40;;;;;;;7.20;3.78;;;;;;;27.19;25.65;99975.50;10351668;28;20263;-61
2022/08/28 13:42:42;;;;;;;9.35;4.45;;;;;;;27.32;25.05;99966.69;10352188;28;20157;-61
2022/08/28 13:47:43;;;;;;;8.00;3.45;;;;;;;27.14;25.76;99963.66;10351373;28;20058;-61
2022/08/28 13:52:45;;;;;;;10.55;3.10;;;;;;;27.15;24.81;99965.34;10350859;28;20076;-61
2022/08/28 13:57:47;;;;;;;6.30;3.03;;;;;;;27.11;24.99;99969.44;10350922;28;20054;-61
2022/08/28 14:08:09;;;;;;;6.35;3.22;;;;;;;27.06;24.38;99967.31;10350857;28;20049;-61
2022/08/28 14:13:11;;;;;;;7.28;3.45;;;;;;;26.87;24.25;99964.53;10349910;28;20049;-61
2022/08/28 14:18:13;;;;;;;7.20;2.80;;;;;;;26.91;24.85;99957.72;10350936;28;20158;-61
2022/08/28 14:23:15;;;;;;;5.13;2.80;;;;;;;27.04;25.20;99968.53;10351012;28;20160;-61
2022/08/28 14:28:16;;;;;;;6.30;2.90;;;;;;;26.93;24.96;99974.47;10349736;28;20500;-61
2022/08/28 14:33:18;;;;;;;6.07;2.60;;;;;;;26.82;25.34;99970.47;10349729;28;20540;-61
2022/08/28 14:38:21;;;;;;;7.43;2.92;;;;;;;26.90;24.58;99967.63;10348825;28;20061;-61
2022/08/28 14:43:23;;;;;;;6.28;2.80;;;;;;;26.66;24.43;99962.69;10350391;28;20498;-61
2022/08/28 14:48:25;;;;;;;5.47;2.38;;;;;;;26.86;25.05;99966.38;10349334;28;20625;-60
2022/08/28 14:53:27;;;;;;;5.05;2.50;;;;;;;27.06;24.82;99969.16;10349879;28;20446;-60
2022/08/28 14:58:28;;;;;;;5.90;2.38;;;;;;;27.21;24.55;99965.41;10346505;28;20058;-60
2022/08/28 15:03:30;;;;;;;8.05;2.75;;;;;;;27.27;23.76;99959.22;10348012;28;20866;-61
2022/08/28 15:08:33;;;;;;;6.25;2.42;;;;;;;27.01;23.84;99961.72;10347869;28;20046;-61
2022/08/28 15:13:36;;;;;;;4.82;2.20;;;;;;;26.92;23.96;99960.22;10349111;28;20806;-61
2022/08/28 15:18:41;;;;;;;5.15;2.42;;;;;;;27.00;24.19;99959.22;10347786;28;20053;-61
2022/08/28 15:23:50;;;;;;;7.27;2.67;;;;;;;26.92;23.74;99954.84;10349210;28;20057;-61
2022/08/28 15:28:54;;;;;;;4.55;2.20;;;;;;;27.11;24.29;99964.06;10348033;28;20080;-61
2022/08/28 15:33:57;;;;;;;6.38;2.35;;;;;;;27.24;23.71;99948.88;10345679;28;20628;-61
2022/08/28 15:44:20;;;;;;;5.75;2.35;;;;;;;27.07;23.95;99947.53;10346756;28;20957;-61
2022/08/28 15:49:24;;;;;;;6.78;2.47;;;;;;;27.11;23.82;99956.84;10348119;28;20056;-61
2022/08/28 15:54:26;;;;;;;4.38;2.00;;;;;;;27.13;23.34;99954.78;10345329;28;20064;-61
2022/08/28 15:59:29;;;;;;;5.03;2.13;;;;;;;27.17;24.06;99956.06;10329979;28;20042;-60
2022/08/28 16:04:51;;;;;;;5.43;2.50;;;;;;;27.28;24.13;99952.81;10344094;28;20449;-60
2022/08/28 16:09:53;;;;;;;7.03;2.28;;;;;;;27.30;23.48;99952.66;10340127;28;20052;-60
2022/08/28 16:14:55;;;;;;;5.10;2.20;;;;;;;27.25;24.07;99950.53;10339355;28;20052;-60
2022/08/28 16:19:57;;;;;;;3.97;2.00;;;;;;;26.98;24.66;99958.59;10338485;28;20060;-60
2022/08/28 16:24:58;;;;;;;4.97;2.10;;;;;;;26.85;23.67;99961.19;10344497;28;20068;-60
2022/08/28 16:30:00;;;;;;;6.90;2.40;;;;;;;26.75;24.45;99958.84;10343346;28;20080;-60
2022/08/28 16:35:02;;;;;;;4.90;2.00;;;;;;;26.53;24.22;99965.22;10344866;28;20049;-59
2022/08/28 16:40:09;;;;;;;10.48;2.55;;;;;;;26.53;24.21;99968.75;10341139;28;20136;-59
2022/08/28 16:45:11;;;;;;;7.13;2.30;;;;;;;26.58;24.66;99966.38;10331774;28;20050;-60
2022/08/28 16:50:15;;;;;;;7.60;2.17;;;;;;;26.39;25.18;99968.81;10323717;28;20056;-59
2022/08/28 16:55:20;;;;;;;4.88;2.08;;;;;;;26.20;24.31;99969.47;10338805;28;20058;-60
2022/08/28 17:00:23;;;;;;;4.90;2.00;;;;;;;26.01;24.80;99970.09;10335521;28;20565;-59
2022/08/28 17:05:25;;;;;;;4.72;2.15;;;;;;;25.96;25.13;99983.25;10339864;28;20137;-59
2022/08/28 17:10:27;;;;;;;5.68;2.17;;;;;;;25.71;24.70;99977.34;10342967;28;20054;-60
2022/08/28 17:15:30;;;;;;;4.70;1.90;;;;;;;25.63;24.73;99983.63;10340518;28;20104;-60
2022/08/28 17:25:53;;;;;;;4.68;1.92;;;;;;;25.40;25.25;99988.28;10337089;28;20552;-59
2022/08/28 17:30:55;;;;;;;3.75;1.52;;;;;;;25.22;25.69;99987.78;10335550;28;20517;-59
2022/08/28 17:35:58;;;;;;;4.78;1.83;;;;;;;25.09;25.56;99992.94;10338377;28;20049;-59
2022/08/28 17:41:04;;;;;;;6.97;2.13;;;;;;;24.93;26.23;99990.44;10341264;28;20054;-60
2022/08/28 17:46:06;;;;;;;6.47;1.88;;;;;;;24.72;26.76;99998.31;10325528;28;20053;-60
2022/08/28 17:51:08;;;;;;;4.85;1.90;;;;;;;24.58;26.64;100007.09;10338515;28;20443;-60
2022/08/28 17:56:11;;;;;;;7.68;1.90;;;;;;;24.31;27.04;100007.66;10338842;28;20054;-60
2022/08/28 18:01:26;;;;;;;5.38;1.88;;;;;;;24.22;27.08;100013.03;10340344;28;20060;-60
2022/08/28 18:06:27;;;;;;;9.45;2.15;;;;;;;23.94;27.67;100014.50;10339920;28;21147;-60
2022/08/28 18:11:29;;;;;;;5.63;1.90;;;;;;;23.69;27.90;100020.97;10345801;28;20054;-60
2022/08/28 18:16:32;;;;;;;5.40;1.65;;;;;;;23.41;29.08;100025.91;10344677;28;20058;-60
2022/08/28 18:21:36;;;;;;;7.45;1.98;;;;;;;23.13;29.62;100034.44;10346380;28;20042;-60
2022/08/28 18:26:38;;;;;;;21.88;3.28;;;;;;;22.86;29.79;100040.97;10347039;28;20088;-60
2022/08/28 18:31:41;;;;;;;5.88;2.03;;;;;;;22.63;30.21;100051.44;10344432;28;20056;-59
2022/08/28 18:36:42;;;;;;;5.60;2.13;;;;;;;22.48;30.59;100060.25;10342624;28;20050;-61
2022/08/28 18:41:44;;;;;;;8.95;2.20;;;;;;;22.29;31.00;100069.38;10347977;28;20081;-61
2022/08/28 18:46:46;;;;;;;7.57;2.17;;;;;;;22.19;30.90;100082.00;10349116;28;20053;-60
2022/08/28 18:51:47;;;;;;;5.47;2.15;;;;;;;22.02;31.55;100092.72;10348367;28;20160;-61
2022/08/28 18:56:49;;;;;;;5.82;2.13;;;;;;;21.92;31.41;100098.19;10344312;28;20647;-61
2022/08/28 19:01:51;;;;;;;6.15;2.20;;;;;;;21.78;31.59;100101.47;10345694;28;20058;-61
2022/08/28 19:06:53;;;;;;;5.90;2.00;;;;;;;21.60;32.37;100106.00;10342088;28;20050;-61
2022/08/28 19:11:55;;;;;;;6.43;2.50;;;;;;;21.45;32.85;100110.25;10345371;28;20049;-61
2022/08/28 19:16:57;;;;;;;5.70;1.90;;;;;;;21.34;32.86;100121.13;10347660;28;20050;-61
2022/08/28 19:21:59;;;;;;;5.38;1.92;;;;;;;21.25;33.68;100127.38;10346187;28;20062;-60
2022/08/28 19:27:01;;;;;;;8.95;2.10;;;;;;;21.08;33.11;100137.03;10347406;28;20054;-60
2022/08/28 19:32:04;;;;;;;6.32;2.10;;;;;;;20.99;33.78;100137.94;10345472;28;20060;-61
2022/08/28 19:37:06;;;;;;;8.23;2.13;;;;;;;20.90;34.39;100142.38;10343909;28;20908;-61
2022/08/28 19:42:07;;;;;;;6.70;2.33;;;;;;;20.86;34.31;100148.16;10346488;28;20050;-60
2022/08/28 19:47:09;;;;;;;5.60;2.20;;;;;;;20.75;34.86;100149.19;10343458;28;20060;-61
2022/08/28 19:52:11;;;;;;;10.43;2.42;;;;;;;20.71;34.64;100161.13;10344912;28;20050;-61
2022/08/28 19:57:14;;;;;;;7.22;2.15;;;;;;;20.65;34.79;100161.72;10345946;28;20062;-60
2022/08/28 20:02:21;;;;;;;6.63;2.40;;;;;;;20.44;35.05;100174.41;10345228;28;20515;-61
2022/08/28 20:07:23;;;;;;;7.57;2.75;;;;;;;20.38;35.48;100179.50;10346271;28;20593;-61
2022/08/28 20:12:25;;;;;;;5.65;2.30;;;;;;;20.19;34.90;100196.34;10345159;28;20050;-60
2022/08/28 20:17:27;;;;;;;6.68;2.25;;;;;;;20.15;35.42;100192.31;10345885;28;20076;-61
2022/08/28 20:22:30;;;;;;;6.57;1.98;;;;;;;20.16;35.89;100197.47;10345700;28;20052;-60
2022/08/28 20:27:32;;;;;;;6.97;2.10;;;;;;;20.16;35.98;100204.59;10345140;28;20506;-60
2022/08/28 20:32:34;;;;;;;6.78;2.30;;;;;;;20.10;35.78;100207.84;10339985;28;20053;-61
2022/08/28 20:37:42;;;;;;;6.05;2.10;;;;;;;19.98;36.00;100207.19;10344707;28;20056;-61
2022/08/28 20:42:47;;;;;;;7.97;2.13;;;;;;;19.89;36.20;100210.69;10345667;28;20512;-61
2022/08/28 20:47:48;;;;;;;5.97;2.28;;;;;;;19.76;36.19;100214.63;10341349;28;20046;-60
2022/08/28 20:52:51;;;;;;;6.97;2.05;;;;;;;19.66;36.34;100224.41;10341420;28;20056;-61
2022/08/28 20:57:53;;;;;;;6.93;2.15;;;;;;;19.62;36.83;100223.03;10344411;28;20168;-61
2022/08/28 21:02:55;;;;;;;7.40;2.20;;;;;;;19.46;37.10;100224.44;10344158;28;20569;-61
2022/08/28 21:07:56;;;;;;;7.93;2.20;;;;;;;19.34;37.23;100220.25;10345460;28;20050;-61
2022/08/28 21:12:58;;;;;;;9.02;2.40;;;;;;;19.25;37.41;100233.53;10342569;28;20506;-61
2022/08/28 21:18:01;;;;;;;7.03;2.08;;;;;;;19.25;37.66;100234.38;10343803;28;20089;-61
2022/08/28 21:23:05;;;;;;;5.20;2.00;;;;;;;19.16;37.59;100245.78;10340861;28;20050;-61
2022/08/28 21:28:07;;;;;;;7.18;2.20;;;;;;;18.97;38.02;100248.38;10340157;28;20054;-61
2022/08/28 21:33:09;;;;;;;17.55;2.30;;;;;;;19.00;38.01;100242.81;10341376;28;20058;-61
2022/08/28 21:38:11;;;;;;;5.55;2.10;;;;;;;18.80;38.40;100246.41;10341398;28;20179;-61
2022/08/28 21:43:12;;;;;;;7.82;2.38;;;;;;;18.62;38.78;100248.88;10344305;28;20046;-61
2022/08/28 21:48:14;;;;;;;7.32;2.88;;;;;;;18.52;39.16;100258.59;10349347;28;20054;-61
2022/08/28 21:53:16;;;;;;;5.68;2.10;;;;;;;18.23;39.56;100259.44;10349427;28;20505;-61
2022/08/28 21:58:21;;;;;;;5.22;2.20;;;;;;;17.67;40.56;100265.06;10348340;28;20062;-61
2022/08/28 22:03:23;;;;;;;5.65;2.33;;;;;;;17.79;40.67;100271.97;10349197;28;20391;-61
2022/08/28 22:08:27;;;;;;;6.07;2.20;;;;;;;17.94;40.75;100271.66;10348002;28;20069;-61
2022/08/28 22:13:29;;;;;;;7.28;2.30;;;;;;;17.90;40.76;100275.53;10349151;28;20059;-61
2022/08/28 22:18:31;;;;;;;6.30;2.22;;;;;;;17.69;41.23;100280.81;10348779;28;20058;-61
2022/08/28 22:23:36;;;;;;;4.85;2.00;;;;;;;17.49;41.91;100282.47;10348307;28;20132;-61
2022/08/28 22:28:38;;;;;;;5.95;2.35;;;;;;;17.43;42.08;100285.63;10348020;28;20531;-60
2022/08/28 22:33:41;;;;;;;3.90;2.03;;;;;;;17.28;42.04;100291.31;10348043;28;20470;-60
2022/08/28 22:38:43;;;;;;;7.22;2.28;;;;;;;17.12;42.69;100291.69;10346009;28;20046;-61
2022/08/28 22:43:54;;;;;;;6.57;2.30;;;;;;;17.12;43.00;100293.53;10349149;28;20467;-60
2022/08/28 22:48:55;;;;;;;8.02;2.35;;;;;;;17.04;43.31;100294.97;10347055;28;20056;-60
2022/08/28 22:53:57;;;;;;;5.35;2.10;;;;;;;16.47;43.92;100301.41;10344989;28;20465;-60
2022/08/28 22:58:59;;;;;;;7.43;2.20;;;;;;;16.26;44.67;100295.97;10347910;28;20467;-60
2022/08/28 23:04:01;;;;;;;6.18;2.10;;;;;;;16.45;44.31;100296.22;10347231;28;20410;-60
2022/08/28 23:09:03;;;;;;;5.13;2.17;;;;;;;16.38;44.67;100300.28;10347472;28;20050;-60
2022/08/28 23:14:05;;;;;;;5.85;2.25;;;;;;;16.41;44.54;100302.69;10346584;28;20054;-60
2022/08/28 23:19:06;;;;;;;5.45;2.35;;;;;;;16.16;44.77;100308.19;10346891;28;20058;-60
2022/08/28 23:24:14;;;;;;;6.68;2.40;;;;;;;15.91;45.69;100300.47;10345159;28;20613;-60
2022/08/28 23:29:16;;;;;;;8.32;2.42;;;;;;;15.78;45.84;100303.19;10345610;28;20054;-60
2022/08/28 23:34:18;;;;;;;5.40;2.17;;;;;;;15.53;46.48;100297.22;10346357;28;20506;-60
2022/08/28 23:39:19;;;;;;;6.03;2.28;;;;;;;15.40;46.94;100294.63;10344927;28;20052;-60
2022/08/28 23:44:21;;;;;;;5.65;2.20;;;;;;;15.47;47.06;100298.47;10346198;28;20058;-60